sensor_id;sensor_type;location;lat;lon;timestamp;P1;durP1;ratioP1;P2;durP2;ratioP2
43986;SDS011;29650;47.378;8.300;2024-01-30T00:01:08;13.88;;;9.32;;
43986;SDS011;29650;47.378;8.300;2024-01-30T00:03:36;14.18;;;8.63;;
43986;SDS011;29650;47.378;8.300;2024-01-30T00:06:03;29.70;;;10.80;;
43986;SDS011;29650;47.378;8.300;2024-01-30T00:08:30;18.40;;;9.95;;
43986;SDS011;29650;47.378;8.300;2024-01-30T00:11:03;32.15;;;11.10;;
43986;SDS011;29650;47.378;8.300;2024-01-30T00:13:30;14.30;;;9.73;;
43986;SDS011;29650;47.378;8.300;2024-01-30T00:15:58;11.77;;;8.48;;
43986;SDS011;29650;47.378;8.300;2024-01-30T00:18:26;13.18;;;8.93;;
43986;SDS011;29650;47.378;8.300;2024-01-30T00:20:54;13.70;;;8.95;;
43986;SDS011;29650;47.378;8.300;2024-01-30T00:23:21;22.23;;;10.43;;
43986;SDS011;29650;47.378;8.300;2024-01-30T00:25:48;13.80;;;8.73;;
43986;SDS011;29650;47.378;8.300;2024-01-30T00:28:15;17.27;;;9.70;;
43986;SDS011;29650;47.378;8.300;2024-01-30T00:30:43;63.17;;;9.98;;
43986;SDS011;29650;47.378;8.300;2024-01-30T00:33:10;57.28;;;11.68;;
43986;SDS011;29650;47.378;8.300;2024-01-30T00:38:21;45.67;;;10.93;;
43986;SDS011;29650;47.378;8.300;2024-01-30T00:40:48;80.20;;;12.80;;
43986;SDS011;29650;47.378;8.300;2024-01-30T00:43:15;61.95;;;12.77;;
43986;SDS011;29650;47.378;8.300;2024-01-30T00:45:43;430.73;;;31.08;;
43986;SDS011;29650;47.378;8.300;2024-01-30T00:48:10;196.07;;;22.15;;
43986;SDS011;29650;47.378;8.300;2024-01-30T00:50:37;439.25;;;29.98;;
43986;SDS011;29650;47.378;8.300;2024-01-30T00:53:06;807.20;;;56.33;;
43986;SDS011;29650;47.378;8.300;2024-01-30T00:55:42;374.25;;;29.75;;
43986;SDS011;29650;47.378;8.300;2024-01-30T00:58:09;562.47;;;46.83;;
43986;SDS011;29650;47.378;8.300;2024-01-30T01:00:41;391.50;;;29.67;;
43986;SDS011;29650;47.378;8.300;2024-01-30T01:03:08;640.83;;;56.45;;
43986;SDS011;29650;47.378;8.300;2024-01-30T01:05:35;380.20;;;35.58;;
43986;SDS011;29650;47.378;8.300;2024-01-30T01:08:03;409.20;;;33.97;;
43986;SDS011;29650;47.378;8.300;2024-01-30T01:10:40;83.45;;;15.93;;
43986;SDS011;29650;47.378;8.300;2024-01-30T01:13:08;104.93;;;19.42;;
43986;SDS011;29650;47.378;8.300;2024-01-30T01:15:35;156.40;;;19.77;;
43986;SDS011;29650;47.378;8.300;2024-01-30T01:18:03;81.53;;;17.90;;
43986;SDS011;29650;47.378;8.300;2024-01-30T01:20:31;102.10;;;17.15;;
43986;SDS011;29650;47.378;8.300;2024-01-30T01:22:58;120.43;;;18.02;;
43986;SDS011;29650;47.378;8.300;2024-01-30T01:25:27;78.80;;;17.27;;
43986;SDS011;29650;47.378;8.300;2024-01-30T01:27:54;73.82;;;16.63;;
43986;SDS011;29650;47.378;8.300;2024-01-30T01:30:37;51.22;;;14.85;;
43986;SDS011;29650;47.378;8.300;2024-01-30T01:33:04;40.13;;;14.57;;
43986;SDS011;29650;47.378;8.300;2024-01-30T01:35:31;93.45;;;16.92;;
43986;SDS011;29650;47.378;8.300;2024-01-30T01:37:59;141.70;;;19.05;;
43986;SDS011;29650;47.378;8.300;2024-01-30T01:40:29;77.25;;;15.30;;
43986;SDS011;29650;47.378;8.300;2024-01-30T01:42:56;198.70;;;22.80;;
43986;SDS011;29650;47.378;8.300;2024-01-30T01:45:23;257.73;;;27.27;;
43986;SDS011;29650;47.378;8.300;2024-01-30T01:47:51;90.70;;;17.00;;
43986;SDS011;29650;47.378;8.300;2024-01-30T01:50:18;173.05;;;23.30;;
43986;SDS011;29650;47.378;8.300;2024-01-30T01:52:51;255.88;;;22.40;;
43986;SDS011;29650;47.378;8.300;2024-01-30T01:55:19;100.05;;;17.05;;
43986;SDS011;29650;47.378;8.300;2024-01-30T02:00:33;91.05;;;16.15;;
43986;SDS011;29650;47.378;8.300;2024-01-30T02:03:04;88.03;;;17.17;;
43986;SDS011;29650;47.378;8.300;2024-01-30T02:05:33;45.83;;;13.93;;
43986;SDS011;29650;47.378;8.300;2024-01-30T02:08:00;40.08;;;12.93;;
43986;SDS011;29650;47.378;8.300;2024-01-30T02:10:28;45.20;;;14.60;;
43986;SDS011;29650;47.378;8.300;2024-01-30T02:12:55;68.13;;;13.63;;
43986;SDS011;29650;47.378;8.300;2024-01-30T02:15:24;134.73;;;19.63;;
43986;SDS011;29650;47.378;8.300;2024-01-30T02:17:54;51.03;;;13.90;;
43986;SDS011;29650;47.378;8.300;2024-01-30T02:20:21;104.13;;;16.58;;
43986;SDS011;29650;47.378;8.300;2024-01-30T02:22:50;100.55;;;18.75;;
43986;SDS011;29650;47.378;8.300;2024-01-30T02:25:19;182.02;;;21.60;;
43986;SDS011;29650;47.378;8.300;2024-01-30T02:27:47;104.05;;;16.92;;
43986;SDS011;29650;47.378;8.300;2024-01-30T02:30:15;72.43;;;16.02;;
43986;SDS011;29650;47.378;8.300;2024-01-30T02:32:56;89.72;;;16.83;;
43986;SDS011;29650;47.378;8.300;2024-01-30T02:35:23;56.35;;;16.00;;
43986;SDS011;29650;47.378;8.300;2024-01-30T02:37:52;114.40;;;16.58;;
43986;SDS011;29650;47.378;8.300;2024-01-30T02:40:19;154.70;;;19.65;;
43986;SDS011;29650;47.378;8.300;2024-01-30T02:42:46;126.40;;;17.15;;
43986;SDS011;29650;47.378;8.300;2024-01-30T02:45:13;90.55;;;17.90;;
43986;SDS011;29650;47.378;8.300;2024-01-30T02:47:41;51.65;;;13.43;;
43986;SDS011;29650;47.378;8.300;2024-01-30T02:50:08;105.82;;;17.50;;
43986;SDS011;29650;47.378;8.300;2024-01-30T02:52:36;70.15;;;14.77;;
43986;SDS011;29650;47.378;8.300;2024-01-30T02:55:14;133.05;;;19.80;;
43986;SDS011;29650;47.378;8.300;2024-01-30T02:57:42;111.70;;;15.95;;
43986;SDS011;29650;47.378;8.300;2024-01-30T03:00:10;102.32;;;18.60;;
43986;SDS011;29650;47.378;8.300;2024-01-30T03:02:38;79.43;;;14.45;;
43986;SDS011;29650;47.378;8.300;2024-01-30T03:05:05;129.73;;;15.38;;
43986;SDS011;29650;47.378;8.300;2024-01-30T03:07:34;34.85;;;12.50;;
43986;SDS011;29650;47.378;8.300;2024-01-30T03:10:01;82.95;;;15.77;;
43986;SDS011;29650;47.378;8.300;2024-01-30T03:12:29;176.13;;;19.10;;
43986;SDS011;29650;47.378;8.300;2024-01-30T03:14:57;82.80;;;16.58;;
43986;SDS011;29650;47.378;8.300;2024-01-30T03:17:24;74.03;;;13.40;;
43986;SDS011;29650;47.378;8.300;2024-01-30T03:19:51;74.90;;;15.15;;
43986;SDS011;29650;47.378;8.300;2024-01-30T03:22:18;25.73;;;12.90;;
43986;SDS011;29650;47.378;8.300;2024-01-30T03:24:45;91.90;;;18.00;;
43986;SDS011;29650;47.378;8.300;2024-01-30T03:27:13;94.80;;;17.75;;
43986;SDS011;29650;47.378;8.300;2024-01-30T03:29:42;44.90;;;13.23;;
43986;SDS011;29650;47.378;8.300;2024-01-30T03:32:09;215.65;;;27.50;;
43986;SDS011;29650;47.378;8.300;2024-01-30T03:34:36;111.40;;;17.65;;
43986;SDS011;29650;47.378;8.300;2024-01-30T03:37:03;56.25;;;15.07;;
43986;SDS011;29650;47.378;8.300;2024-01-30T03:39:31;176.60;;;21.75;;
43986;SDS011;29650;47.378;8.300;2024-01-30T03:41:58;241.75;;;22.60;;
43986;SDS011;29650;47.378;8.300;2024-01-30T03:44:25;118.10;;;20.48;;
43986;SDS011;29650;47.378;8.300;2024-01-30T03:46:54;102.05;;;14.73;;
43986;SDS011;29650;47.378;8.300;2024-01-30T03:49:21;157.45;;;19.00;;
43986;SDS011;29650;47.378;8.300;2024-01-30T03:51:48;107.53;;;14.55;;
43986;SDS011;29650;47.378;8.300;2024-01-30T03:54:16;159.88;;;20.60;;
43986;SDS011;29650;47.378;8.300;2024-01-30T03:56:47;59.78;;;14.40;;
43986;SDS011;29650;47.378;8.300;2024-01-30T03:59:15;121.93;;;14.68;;
43986;SDS011;29650;47.378;8.300;2024-01-30T04:01:52;284.15;;;26.30;;
43986;SDS011;29650;47.378;8.300;2024-01-30T04:04:21;782.50;;;60.87;;
43986;SDS011;29650;47.378;8.300;2024-01-30T04:06:48;280.95;;;25.85;;
43986;SDS011;29650;47.378;8.300;2024-01-30T04:09:16;351.77;;;29.02;;
43986;SDS011;29650;47.378;8.300;2024-01-30T04:11:43;41.25;;;11.80;;
43986;SDS011;29650;47.378;8.300;2024-01-30T04:14:16;338.40;;;31.63;;
43986;SDS011;29650;47.378;8.300;2024-01-30T04:16:43;239.68;;;24.90;;
43986;SDS011;29650;47.378;8.300;2024-01-30T04:19:11;166.93;;;22.23;;
43986;SDS011;29650;47.378;8.300;2024-01-30T04:21:39;100.57;;;14.27;;
43986;SDS011;29650;47.378;8.300;2024-01-30T04:24:06;184.02;;;20.40;;
43986;SDS011;29650;47.378;8.300;2024-01-30T04:26:33;281.73;;;25.70;;
43986;SDS011;29650;47.378;8.300;2024-01-30T04:29:01;104.87;;;14.73;;
43986;SDS011;29650;47.378;8.300;2024-01-30T04:31:38;237.85;;;21.23;;
43986;SDS011;29650;47.378;8.300;2024-01-30T04:34:05;293.95;;;26.50;;
43986;SDS011;29650;47.378;8.300;2024-01-30T04:36:34;48.33;;;12.55;;
43986;SDS011;29650;47.378;8.300;2024-01-30T04:39:01;82.53;;;13.68;;
43986;SDS011;29650;47.378;8.300;2024-01-30T04:41:28;63.05;;;12.88;;
43986;SDS011;29650;47.378;8.300;2024-01-30T04:43:57;25.45;;;10.07;;
43986;SDS011;29650;47.378;8.300;2024-01-30T04:46:24;324.67;;;34.22;;
43986;SDS011;29650;47.378;8.300;2024-01-30T04:48:52;82.03;;;18.10;;
43986;SDS011;29650;47.378;8.300;2024-01-30T04:51:24;192.45;;;22.52;;
43986;SDS011;29650;47.378;8.300;2024-01-30T04:53:53;24.83;;;12.90;;
43986;SDS011;29650;47.378;8.300;2024-01-30T04:56:33;78.75;;;13.98;;
43986;SDS011;29650;47.378;8.300;2024-01-30T04:59:01;68.78;;;15.18;;
43986;SDS011;29650;47.378;8.300;2024-01-30T05:01:38;84.72;;;11.27;;
43986;SDS011;29650;47.378;8.300;2024-01-30T05:04:07;343.83;;;29.85;;
43986;SDS011;29650;47.378;8.300;2024-01-30T05:09:02;146.55;;;19.65;;
43986;SDS011;29650;47.378;8.300;2024-01-30T05:11:30;96.40;;;13.93;;
43986;SDS011;29650;47.378;8.300;2024-01-30T05:13:57;152.27;;;16.23;;
43986;SDS011;29650;47.378;8.300;2024-01-30T05:16:24;202.30;;;17.63;;
43986;SDS011;29650;47.378;8.300;2024-01-30T05:18:51;133.57;;;16.40;;
43986;SDS011;29650;47.378;8.300;2024-01-30T05:21:19;140.13;;;15.38;;
43986;SDS011;29650;47.378;8.300;2024-01-30T05:23:46;210.65;;;17.98;;
43986;SDS011;29650;47.378;8.300;2024-01-30T05:26:15;175.95;;;19.08;;
43986;SDS011;29650;47.378;8.300;2024-01-30T05:28:42;214.75;;;23.70;;
43986;SDS011;29650;47.378;8.300;2024-01-30T05:31:23;77.85;;;13.75;;
43986;SDS011;29650;47.378;8.300;2024-01-30T05:33:51;55.53;;;12.47;;
43986;SDS011;29650;47.378;8.300;2024-01-30T05:36:18;118.57;;;15.98;;
43986;SDS011;29650;47.378;8.300;2024-01-30T05:38:46;61.85;;;12.07;;
43986;SDS011;29650;47.378;8.300;2024-01-30T05:41:14;66.93;;;12.35;;
43986;SDS011;29650;47.378;8.300;2024-01-30T05:43:41;23.27;;;9.48;;
43986;SDS011;29650;47.378;8.300;2024-01-30T05:46:09;99.13;;;13.00;;
43986;SDS011;29650;47.378;8.300;2024-01-30T05:48:36;72.60;;;13.00;;
43986;SDS011;29650;47.378;8.300;2024-01-30T05:51:03;92.03;;;14.20;;
43986;SDS011;29650;47.378;8.300;2024-01-30T05:53:31;72.57;;;16.13;;
43986;SDS011;29650;47.378;8.300;2024-01-30T05:55:59;86.22;;;19.17;;
43986;SDS011;29650;47.378;8.300;2024-01-30T05:58:27;114.97;;;18.48;;
43986;SDS011;29650;47.378;8.300;2024-01-30T06:00:56;214.68;;;29.05;;
43986;SDS011;29650;47.378;8.300;2024-01-30T06:03:23;116.57;;;16.98;;
43986;SDS011;29650;47.378;8.300;2024-01-30T06:05:51;144.00;;;19.55;;
43986;SDS011;29650;47.378;8.300;2024-01-30T06:08:21;87.22;;;16.85;;
43986;SDS011;29650;47.378;8.300;2024-01-30T06:10:48;146.77;;;21.27;;
43986;SDS011;29650;47.378;8.300;2024-01-30T06:13:15;84.97;;;16.75;;
43986;SDS011;29650;47.378;8.300;2024-01-30T06:15:44;34.55;;;12.32;;
43986;SDS011;29650;47.378;8.300;2024-01-30T06:18:11;25.30;;;11.75;;
43986;SDS011;29650;47.378;8.300;2024-01-30T06:20:39;77.20;;;15.70;;
43986;SDS011;29650;47.378;8.300;2024-01-30T06:23:06;93.35;;;15.82;;
43986;SDS011;29650;47.378;8.300;2024-01-30T06:25:33;52.72;;;11.10;;
43986;SDS011;29650;47.378;8.300;2024-01-30T06:28:00;18.70;;;10.93;;
43986;SDS011;29650;47.378;8.300;2024-01-30T06:30:28;36.42;;;11.85;;
43986;SDS011;29650;47.378;8.300;2024-01-30T06:32:57;49.50;;;14.57;;
43986;SDS011;29650;47.378;8.300;2024-01-30T06:35:24;50.63;;;13.23;;
43986;SDS011;29650;47.378;8.300;2024-01-30T06:37:51;43.97;;;12.55;;
43986;SDS011;29650;47.378;8.300;2024-01-30T06:40:18;21.10;;;10.65;;
43986;SDS011;29650;47.378;8.300;2024-01-30T06:42:46;39.20;;;10.43;;
43986;SDS011;29650;47.378;8.300;2024-01-30T06:45:13;37.40;;;10.27;;
43986;SDS011;29650;47.378;8.300;2024-01-30T06:47:40;32.40;;;10.90;;
43986;SDS011;29650;47.378;8.300;2024-01-30T06:50:13;39.53;;;11.98;;
43986;SDS011;29650;47.378;8.300;2024-01-30T06:52:40;30.45;;;11.68;;
43986;SDS011;29650;47.378;8.300;2024-01-30T06:55:07;59.75;;;12.57;;
43986;SDS011;29650;47.378;8.300;2024-01-30T06:57:35;207.93;;;23.10;;
43986;SDS011;29650;47.378;8.300;2024-01-30T07:00:02;42.45;;;10.82;;
43986;SDS011;29650;47.378;8.300;2024-01-30T07:02:31;17.60;;;10.88;;
43986;SDS011;29650;47.378;8.300;2024-01-30T07:04:58;28.75;;;10.65;;
43986;SDS011;29650;47.378;8.300;2024-01-30T07:07:27;13.23;;;8.98;;
43986;SDS011;29650;47.378;8.300;2024-01-30T07:09:56;152.13;;;17.02;;
43986;SDS011;29650;47.378;8.300;2024-01-30T07:12:23;85.45;;;12.18;;
43986;SDS011;29650;47.378;8.300;2024-01-30T07:14:51;141.55;;;17.73;;
43986;SDS011;29650;47.378;8.300;2024-01-30T07:17:18;77.85;;;12.10;;
43986;SDS011;29650;47.378;8.300;2024-01-30T07:19:45;76.97;;;12.85;;
43986;SDS011;29650;47.378;8.300;2024-01-30T07:22:13;46.42;;;10.88;;
43986;SDS011;29650;47.378;8.300;2024-01-30T07:24:43;241.80;;;21.38;;
43986;SDS011;29650;47.378;8.300;2024-01-30T07:27:13;28.85;;;10.73;;
43986;SDS011;29650;47.378;8.300;2024-01-30T07:29:42;161.43;;;17.38;;
43986;SDS011;29650;47.378;8.300;2024-01-30T07:32:09;35.78;;;9.75;;
43986;SDS011;29650;47.378;8.300;2024-01-30T07:34:37;83.65;;;13.80;;
43986;SDS011;29650;47.378;8.300;2024-01-30T07:37:04;63.70;;;11.48;;
43986;SDS011;29650;47.378;8.300;2024-01-30T07:42:02;122.22;;;11.77;;
43986;SDS011;29650;47.378;8.300;2024-01-30T07:46:57;67.35;;;13.50;;
43986;SDS011;29650;47.378;8.300;2024-01-30T07:49:24;171.07;;;16.55;;
43986;SDS011;29650;47.378;8.300;2024-01-30T07:51:52;16.65;;;9.90;;
43986;SDS011;29650;47.378;8.300;2024-01-30T07:54:19;40.85;;;11.15;;
43986;SDS011;29650;47.378;8.300;2024-01-30T07:56:46;42.20;;;10.75;;
43986;SDS011;29650;47.378;8.300;2024-01-30T07:59:15;76.25;;;13.70;;
43986;SDS011;29650;47.378;8.300;2024-01-30T08:01:42;124.78;;;14.00;;
43986;SDS011;29650;47.378;8.300;2024-01-30T08:04:09;46.83;;;11.50;;
43986;SDS011;29650;47.378;8.300;2024-01-30T08:06:36;43.70;;;11.93;;
43986;SDS011;29650;47.378;8.300;2024-01-30T08:09:04;117.97;;;16.15;;
43986;SDS011;29650;47.378;8.300;2024-01-30T08:11:32;162.90;;;18.83;;
43986;SDS011;29650;47.378;8.300;2024-01-30T08:13:59;36.88;;;12.65;;
43986;SDS011;29650;47.378;8.300;2024-01-30T08:16:28;162.77;;;20.05;;
43986;SDS011;29650;47.378;8.300;2024-01-30T08:18:55;71.97;;;14.35;;
43986;SDS011;29650;47.378;8.300;2024-01-30T08:21:22;54.60;;;14.00;;
43986;SDS011;29650;47.378;8.300;2024-01-30T08:23:50;56.17;;;13.73;;
43986;SDS011;29650;47.378;8.300;2024-01-30T08:26:17;63.00;;;13.57;;
43986;SDS011;29650;47.378;8.300;2024-01-30T08:28:44;26.55;;;11.38;;
43986;SDS011;29650;47.378;8.300;2024-01-30T08:31:12;168.25;;;20.92;;
43986;SDS011;29650;47.378;8.300;2024-01-30T08:33:40;49.80;;;13.00;;
43986;SDS011;29650;47.378;8.300;2024-01-30T08:36:07;89.68;;;14.85;;
43986;SDS011;29650;47.378;8.300;2024-01-30T08:38:33;74.80;;;14.43;;
43986;SDS011;29650;47.378;8.300;2024-01-30T08:41:01;59.65;;;13.13;;
43986;SDS011;29650;47.378;8.300;2024-01-30T08:43:28;18.90;;;12.07;;
43986;SDS011;29650;47.378;8.300;2024-01-30T08:45:58;118.30;;;17.85;;
43986;SDS011;29650;47.378;8.300;2024-01-30T08:48:26;54.20;;;14.27;;
43986;SDS011;29650;47.378;8.300;2024-01-30T08:50:54;50.08;;;13.45;;
43986;SDS011;29650;47.378;8.300;2024-01-30T08:53:21;88.97;;;17.92;;
43986;SDS011;29650;47.378;8.300;2024-01-30T08:55:49;63.15;;;14.85;;
43986;SDS011;29650;47.378;8.300;2024-01-30T08:58:17;88.43;;;17.85;;
43986;SDS011;29650;47.378;8.300;2024-01-30T09:00:44;24.95;;;12.10;;
43986;SDS011;29650;47.378;8.300;2024-01-30T09:03:12;81.63;;;14.80;;
43986;SDS011;29650;47.378;8.300;2024-01-30T09:05:39;24.42;;;11.40;;
43986;SDS011;29650;47.378;8.300;2024-01-30T09:08:23;34.67;;;12.43;;
43986;SDS011;29650;47.378;8.300;2024-01-30T09:10:50;129.38;;;16.70;;
43986;SDS011;29650;47.378;8.300;2024-01-30T09:13:17;97.72;;;14.63;;
43986;SDS011;29650;47.378;8.300;2024-01-30T09:15:45;20.08;;;11.65;;
43986;SDS011;29650;47.378;8.300;2024-01-30T09:18:12;31.98;;;12.23;;
43986;SDS011;29650;47.378;8.300;2024-01-30T09:20:40;26.00;;;9.77;;
43986;SDS011;29650;47.378;8.300;2024-01-30T09:23:08;23.27;;;10.75;;
43986;SDS011;29650;47.378;8.300;2024-01-30T09:25:35;24.85;;;9.27;;
43986;SDS011;29650;47.378;8.300;2024-01-30T09:28:03;41.33;;;12.43;;
43986;SDS011;29650;47.378;8.300;2024-01-30T09:30:30;15.43;;;9.98;;
43986;SDS011;29650;47.378;8.300;2024-01-30T09:32:58;20.05;;;11.80;;
43986;SDS011;29650;47.378;8.300;2024-01-30T09:35:25;30.67;;;11.65;;
43986;SDS011;29650;47.378;8.300;2024-01-30T09:37:53;23.23;;;9.60;;
43986;SDS011;29650;47.378;8.300;2024-01-30T09:40:21;12.90;;;9.50;;
43986;SDS011;29650;47.378;8.300;2024-01-30T09:42:50;18.58;;;9.93;;
43986;SDS011;29650;47.378;8.300;2024-01-30T09:45:17;14.13;;;8.60;;
43986;SDS011;29650;47.378;8.300;2024-01-30T09:47:45;21.67;;;9.25;;
43986;SDS011;29650;47.378;8.300;2024-01-30T09:50:13;59.60;;;11.98;;
43986;SDS011;29650;47.378;8.300;2024-01-30T09:52:42;38.40;;;10.68;;
43986;SDS011;29650;47.378;8.300;2024-01-30T09:55:10;51.58;;;10.70;;
43986;SDS011;29650;47.378;8.300;2024-01-30T09:57:39;13.38;;;9.68;;
43986;SDS011;29650;47.378;8.300;2024-01-30T10:00:09;81.35;;;13.60;;
43986;SDS011;29650;47.378;8.300;2024-01-30T10:02:38;13.02;;;8.80;;
43986;SDS011;29650;47.378;8.300;2024-01-30T10:05:05;122.15;;;13.82;;
43986;SDS011;29650;47.378;8.300;2024-01-30T10:07:34;226.70;;;22.98;;
43986;SDS011;29650;47.378;8.300;2024-01-30T10:10:01;157.77;;;16.60;;
43986;SDS011;29650;47.378;8.300;2024-01-30T10:12:29;21.50;;;10.77;;
43986;SDS011;29650;47.378;8.300;2024-01-30T10:14:57;121.00;;;14.93;;
43986;SDS011;29650;47.378;8.300;2024-01-30T10:17:29;36.58;;;11.18;;
43986;SDS011;29650;47.378;8.300;2024-01-30T10:19:57;49.97;;;11.43;;
43986;SDS011;29650;47.378;8.300;2024-01-30T10:22:24;16.25;;;10.57;;
43986;SDS011;29650;47.378;8.300;2024-01-30T10:24:51;14.35;;;10.38;;
43986;SDS011;29650;47.378;8.300;2024-01-30T10:27:23;20.35;;;11.13;;
43986;SDS011;29650;47.378;8.300;2024-01-30T10:29:52;17.85;;;10.50;;
43986;SDS011;29650;47.378;8.300;2024-01-30T10:32:21;16.17;;;9.48;;
43986;SDS011;29650;47.378;8.300;2024-01-30T10:34:48;16.35;;;11.10;;
43986;SDS011;29650;47.378;8.300;2024-01-30T10:37:24;19.50;;;11.57;;
43986;SDS011;29650;47.378;8.300;2024-01-30T10:39:59;17.90;;;10.93;;
43986;SDS011;29650;47.378;8.300;2024-01-30T10:42:43;19.38;;;10.15;;
43986;SDS011;29650;47.378;8.300;2024-01-30T10:45:16;15.13;;;10.52;;
43986;SDS011;29650;47.378;8.300;2024-01-30T10:47:48;15.50;;;10.05;;
43986;SDS011;29650;47.378;8.300;2024-01-30T10:50:16;19.42;;;12.77;;
43986;SDS011;29650;47.378;8.300;2024-01-30T10:52:43;15.43;;;10.80;;
43986;SDS011;29650;47.378;8.300;2024-01-30T10:55:11;14.52;;;10.73;;
43986;SDS011;29650;47.378;8.300;2024-01-30T10:57:44;21.33;;;11.35;;
43986;SDS011;29650;47.378;8.300;2024-01-30T11:00:13;13.90;;;10.43;;
43986;SDS011;29650;47.378;8.300;2024-01-30T11:02:43;12.77;;;9.77;;
43986;SDS011;29650;47.378;8.300;2024-01-30T11:05:13;19.50;;;11.77;;
43986;SDS011;29650;47.378;8.300;2024-01-30T11:07:41;19.63;;;11.68;;
43986;SDS011;29650;47.378;8.300;2024-01-30T11:10:08;16.58;;;11.23;;
43986;SDS011;29650;47.378;8.300;2024-01-30T11:12:45;21.23;;;11.35;;
43986;SDS011;29650;47.378;8.300;2024-01-30T11:15:20;16.58;;;10.18;;
43986;SDS011;29650;47.378;8.300;2024-01-30T11:17:52;18.27;;;10.18;;
43986;SDS011;29650;47.378;8.300;2024-01-30T11:20:20;15.00;;;10.35;;
43986;SDS011;29650;47.378;8.300;2024-01-30T11:22:49;15.00;;;9.98;;
43986;SDS011;29650;47.378;8.300;2024-01-30T11:25:19;23.85;;;12.20;;
43986;SDS011;29650;47.378;8.300;2024-01-30T11:30:22;13.38;;;8.88;;
43986;SDS011;29650;47.378;8.300;2024-01-30T11:33:04;13.98;;;9.82;;
43986;SDS011;29650;47.378;8.300;2024-01-30T11:35:36;15.98;;;9.80;;
43986;SDS011;29650;47.378;8.300;2024-01-30T11:38:10;14.38;;;9.27;;
43986;SDS011;29650;47.378;8.300;2024-01-30T11:40:39;15.82;;;10.40;;
43986;SDS011;29650;47.378;8.300;2024-01-30T11:43:12;14.52;;;10.75;;
43986;SDS011;29650;47.378;8.300;2024-01-30T11:45:41;15.30;;;10.43;;
43986;SDS011;29650;47.378;8.300;2024-01-30T11:48:22;16.90;;;10.77;;
43986;SDS011;29650;47.378;8.300;2024-01-30T11:50:52;15.25;;;9.48;;
43986;SDS011;29650;47.378;8.300;2024-01-30T11:53:25;16.00;;;10.70;;
43986;SDS011;29650;47.378;8.300;2024-01-30T11:55:53;14.77;;;10.60;;
43986;SDS011;29650;47.378;8.300;2024-01-30T11:58:20;14.50;;;9.45;;
43986;SDS011;29650;47.378;8.300;2024-01-30T12:00:54;14.00;;;9.43;;
43986;SDS011;29650;47.378;8.300;2024-01-30T12:03:23;14.60;;;9.90;;
43986;SDS011;29650;47.378;8.300;2024-01-30T12:06:04;15.57;;;10.77;;
43986;SDS011;29650;47.378;8.300;2024-01-30T12:08:32;15.10;;;9.88;;
43986;SDS011;29650;47.378;8.300;2024-01-30T12:11:11;13.32;;;9.98;;
43986;SDS011;29650;47.378;8.300;2024-01-30T12:13:38;12.77;;;8.60;;
43986;SDS011;29650;47.378;8.300;2024-01-30T12:16:05;13.25;;;9.18;;
43986;SDS011;29650;47.378;8.300;2024-01-30T12:18:34;16.20;;;9.90;;
43986;SDS011;29650;47.378;8.300;2024-01-30T12:21:01;15.27;;;9.93;;
43986;SDS011;29650;47.378;8.300;2024-01-30T12:23:28;14.55;;;8.75;;
43986;SDS011;29650;47.378;8.300;2024-01-30T12:25:56;13.30;;;8.90;;
43986;SDS011;29650;47.378;8.300;2024-01-30T12:28:24;12.00;;;8.60;;
43986;SDS011;29650;47.378;8.300;2024-01-30T12:30:54;17.05;;;9.25;;
43986;SDS011;29650;47.378;8.300;2024-01-30T12:33:24;18.13;;;9.30;;
43986;SDS011;29650;47.378;8.300;2024-01-30T12:35:54;15.93;;;9.88;;
43986;SDS011;29650;47.378;8.300;2024-01-30T12:38:22;22.17;;;10.27;;
43986;SDS011;29650;47.378;8.300;2024-01-30T12:40:49;16.95;;;9.43;;
43986;SDS011;29650;47.378;8.300;2024-01-30T12:43:20;15.48;;;9.57;;
43986;SDS011;29650;47.378;8.300;2024-01-30T12:45:47;15.85;;;9.68;;
43986;SDS011;29650;47.378;8.300;2024-01-30T12:48:15;18.92;;;10.52;;
43986;SDS011;29650;47.378;8.300;2024-01-30T12:50:42;12.13;;;8.88;;
43986;SDS011;29650;47.378;8.300;2024-01-30T12:53:11;13.05;;;9.18;;
43986;SDS011;29650;47.378;8.300;2024-01-30T12:55:39;15.65;;;9.55;;
43986;SDS011;29650;47.378;8.300;2024-01-30T12:58:06;13.18;;;8.80;;
43986;SDS011;29650;47.378;8.300;2024-01-30T13:00:34;15.25;;;9.48;;
43986;SDS011;29650;47.378;8.300;2024-01-30T13:03:01;15.68;;;9.77;;
43986;SDS011;29650;47.378;8.300;2024-01-30T13:05:28;12.52;;;9.23;;
43986;SDS011;29650;47.378;8.300;2024-01-30T13:07:55;13.57;;;9.15;;
43986;SDS011;29650;47.378;8.300;2024-01-30T13:10:24;13.57;;;8.90;;
43986;SDS011;29650;47.378;8.300;2024-01-30T13:12:51;13.20;;;8.73;;
43986;SDS011;29650;47.378;8.300;2024-01-30T13:15:18;11.55;;;8.02;;
43986;SDS011;29650;47.378;8.300;2024-01-30T13:20:15;14.15;;;8.80;;
43986;SDS011;29650;47.378;8.300;2024-01-30T13:22:44;11.45;;;8.43;;
43986;SDS011;29650;47.378;8.300;2024-01-30T13:25:11;18.35;;;9.88;;
43986;SDS011;29650;47.378;8.300;2024-01-30T13:27:40;15.38;;;9.32;;
43986;SDS011;29650;47.378;8.300;2024-01-30T13:30:08;15.07;;;9.18;;
43986;SDS011;29650;47.378;8.300;2024-01-30T13:32:35;17.77;;;9.90;;
43986;SDS011;29650;47.378;8.300;2024-01-30T13:35:03;14.05;;;9.23;;
43986;SDS011;29650;47.378;8.300;2024-01-30T13:37:31;13.70;;;9.27;;
43986;SDS011;29650;47.378;8.300;2024-01-30T13:40:01;12.82;;;9.38;;
43986;SDS011;29650;47.378;8.300;2024-01-30T13:42:32;16.05;;;10.10;;
43986;SDS011;29650;47.378;8.300;2024-01-30T13:45:00;13.60;;;9.68;;
43986;SDS011;29650;47.378;8.300;2024-01-30T13:47:27;15.45;;;9.75;;
43986;SDS011;29650;47.378;8.300;2024-01-30T13:49:54;11.50;;;8.43;;
43986;SDS011;29650;47.378;8.300;2024-01-30T13:52:22;14.65;;;9.43;;
43986;SDS011;29650;47.378;8.300;2024-01-30T13:54:49;13.55;;;8.70;;
43986;SDS011;29650;47.378;8.300;2024-01-30T13:57:17;12.48;;;8.48;;
43986;SDS011;29650;47.378;8.300;2024-01-30T13:59:44;14.57;;;9.88;;
43986;SDS011;29650;47.378;8.300;2024-01-30T14:02:13;15.55;;;9.30;;
43986;SDS011;29650;47.378;8.300;2024-01-30T14:04:40;16.02;;;10.32;;
43986;SDS011;29650;47.378;8.300;2024-01-30T14:07:07;14.10;;;8.98;;
43986;SDS011;29650;47.378;8.300;2024-01-30T14:09:34;14.40;;;8.90;;
43986;SDS011;29650;47.378;8.300;2024-01-30T14:12:02;11.07;;;8.13;;
43986;SDS011;29650;47.378;8.300;2024-01-30T14:14:29;14.30;;;9.23;;
43986;SDS011;29650;47.378;8.300;2024-01-30T14:16:56;16.00;;;8.82;;
43986;SDS011;29650;47.378;8.300;2024-01-30T14:19:24;13.77;;;9.00;;
43986;SDS011;29650;47.378;8.300;2024-01-30T14:21:52;13.32;;;8.73;;
43986;SDS011;29650;47.378;8.300;2024-01-30T14:24:19;15.25;;;9.13;;
43986;SDS011;29650;47.378;8.300;2024-01-30T14:26:46;16.15;;;9.30;;
43986;SDS011;29650;47.378;8.300;2024-01-30T14:29:13;15.88;;;8.63;;
43986;SDS011;29650;47.378;8.300;2024-01-30T14:31:40;11.82;;;8.30;;
43986;SDS011;29650;47.378;8.300;2024-01-30T14:34:07;16.15;;;8.70;;
43986;SDS011;29650;47.378;8.300;2024-01-30T14:36:37;15.02;;;9.05;;
43986;SDS011;29650;47.378;8.300;2024-01-30T14:39:04;12.77;;;8.68;;
43986;SDS011;29650;47.378;8.300;2024-01-30T14:41:32;14.15;;;8.15;;
43986;SDS011;29650;47.378;8.300;2024-01-30T14:43:59;15.38;;;8.48;;
43986;SDS011;29650;47.378;8.300;2024-01-30T14:46:26;13.57;;;9.07;;